Time;durP1;ratioP1;P1;durP2;ratioP2;P2;SDS_P1;SDS_P2;PMS_P1;PMS_P2;Temp;Humidity;BMP_temperature;BMP_pressure;BME280_temperature;BME280_humidity;BME280_pressure;Samples;Min_cycle;Max_cycle;Signal;HPM_P1;HPM_P2
2022/07/12 00:01:30;;;;;;;5.10;4.70;;;13.20;99.90;;;;;;5064564;28;20804;-48
2022/07/12 00:03:56;;;;;;;5.20;4.80;;;13.10;99.90;;;;;;5070489;28;20197;-49
2022/07/12 00:06:22;;;;;;;5.50;5.00;;;13.10;99.90;;;;;;5066721;28;20186;-50
2022/07/12 00:08:47;;;;;;;5.00;4.60;;;13.10;99.90;;;;;;5048214;28;20533;-52
2022/07/12 00:11:13;;;;;;;6.20;5.33;;;13.10;99.90;;;;;;5062329;28;20182;-49
2022/07/12 00:13:38;;;;;;;4.70;4.30;;;13.00;99.90;;;;;;5071058;28;20177;-50
2022/07/12 00:16:04;;;;;;;5.40;5.00;;;12.90;99.90;;;;;;5060803;28;20194;-50
2022/07/12 00:18:30;;;;;;;5.67;4.93;;;12.90;99.90;;;;;;5056236;28;20240;-49
2022/07/12 00:20:55;;;;;;;5.17;4.87;;;12.90;99.90;;;;;;5064927;28;20628;-48
2022/07/12 00:23:21;;;;;;;5.00;4.70;;;12.80;99.90;;;;;;5068855;28;20186;-49
2022/07/12 00:25:46;;;;;;;4.97;4.60;;;12.80;99.90;;;;;;5068698;28;20190;-50
2022/07/12 00:28:12;;;;;;;6.33;4.73;;;12.70;99.90;;;;;;5074610;28;20577;-50
2022/07/12 00:30:38;;;;;;;4.97;4.67;;;12.70;99.90;;;;;;5065657;28;20216;-47
2022/07/12 00:33:03;;;;;;;4.80;4.50;;;12.70;99.90;;;;;;5065963;28;20543;-49
2022/07/12 00:35:29;;;;;;;5.30;4.90;;;12.70;99.90;;;;;;5069805;28;20189;-48
2022/07/12 00:37:54;;;;;;;5.30;4.90;;;12.70;99.90;;;;;;5068062;28;20198;-51
2022/07/12 00:40:20;;;;;;;5.37;4.97;;;12.60;99.90;;;;;;5063039;28;20181;-52
2022/07/12 00:42:46;;;;;;;5.00;4.70;;;12.60;99.90;;;;;;5065420;28;20196;-48
2022/07/12 00:45:11;;;;;;;6.37;5.20;;;12.60;99.90;;;;;;5068754;28;20299;-50
2022/07/12 00:47:43;;;;;;;5.20;4.80;;;12.50;99.90;;;;;;5068070;28;20213;-48
2022/07/12 00:50:22;;;;;;;6.93;5.60;;;12.50;99.90;;;;;;5059797;28;20182;-48
2022/07/12 00:52:49;;;;;;;6.90;4.90;;;12.50;99.90;;;;;;5068163;28;20436;-49
2022/07/12 00:55:17;;;;;;;4.90;4.60;;;12.50;99.90;;;;;;5054498;28;20800;-50
2022/07/12 00:57:47;;;;;;;5.37;4.97;;;12.50;99.90;;;;;;5060420;28;20532;-47
2022/07/12 01:00:21;;;;;;;6.77;4.70;;;12.40;99.90;;;;;;5059115;28;21191;-48
2022/07/12 01:02:47;;;;;;;5.77;4.80;;;12.40;99.90;;;;;;5065847;28;20468;-48
2022/07/12 01:05:13;;;;;;;5.00;4.60;;;12.40;99.90;;;;;;5066015;28;20471;-51
2022/07/12 01:07:39;;;;;;;6.07;5.57;;;12.30;99.90;;;;;;5056082;28;20582;-52
2022/07/12 01:10:06;;;;;;;4.97;4.67;;;12.30;99.90;;;;;;5056388;28;20799;-51
2022/07/12 01:12:32;;;;;;;5.33;4.93;;;12.30;99.90;;;;;;5057162;28;20438;-49
2022/07/12 01:14:58;;;;;;;4.57;4.27;;;12.20;99.90;;;;;;5065623;28;20431;-51
2022/07/12 01:17:25;;;;;;;4.97;4.47;;;12.20;99.90;;;;;;5065639;28;21223;-47
2022/07/12 01:19:54;;;;;;;5.40;5.00;;;12.20;99.90;;;;;;5068667;28;21209;-46
2022/07/12 01:22:24;;;;;;;5.10;4.77;;;12.20;99.90;;;;;;5057810;28;20435;-49
2022/07/12 01:24:50;;;;;;;5.03;4.63;;;12.10;99.90;;;;;;5064922;28;20447;-50
2022/07/12 01:27:16;;;;;;;5.23;4.83;;;12.10;99.90;;;;;;5081646;28;20492;-49
2022/07/12 01:29:42;;;;;;;5.30;4.90;;;12.10;99.90;;;;;;5054184;28;20185;-50
2022/07/12 01:32:26;;;;;;;5.17;4.67;;;12.20;99.90;;;;;;5066704;28;20825;-51
2022/07/12 01:35:00;;;;;;;4.70;4.30;;;12.20;99.90;;;;;;5053857;28;20195;-47
2022/07/12 01:37:28;;;;;;;4.83;4.43;;;12.30;99.90;;;;;;5068473;28;20901;-50
2022/07/12 01:39:57;;;;;;;5.10;4.70;;;12.40;99.90;;;;;;5065745;28;20868;-47
2022/07/12 01:42:24;;;;;;;5.50;4.50;;;12.40;99.90;;;;;;5068896;28;20401;-52
2022/07/12 01:44:51;;;;;;;4.57;4.23;;;12.50;99.90;;;;;;5067374;28;20447;-50
2022/07/12 01:47:22;;;;;;;4.90;4.50;;;12.60;99.90;;;;;;5053696;28;20472;-50
2022/07/12 01:49:47;;;;;;;5.00;4.60;;;12.60;99.90;;;;;;5061896;28;20436;-48
2022/07/12 01:52:14;;;;;;;4.97;4.57;;;12.60;99.90;;;;;;5055309;28;21129;-47
2022/07/12 01:54:40;;;;;;;4.67;4.37;;;12.60;99.90;;;;;;5065508;28;20189;-48
2022/07/12 01:57:07;;;;;;;4.53;4.13;;;12.60;99.90;;;;;;5067774;28;21001;-50
2022/07/12 01:59:33;;;;;;;4.87;4.50;;;12.60;99.90;;;;;;5065399;28;21170;-46
2022/07/12 02:02:00;;;;;;;4.60;4.30;;;12.60;99.90;;;;;;5065168;28;20483;-52
2022/07/12 02:04:26;;;;;;;4.53;4.23;;;12.60;99.90;;;;;;5059875;28;20440;-47
2022/07/12 02:06:51;;;;;;;7.53;4.23;;;12.60;99.90;;;;;;5065543;28;20431;-52
2022/07/12 02:09:17;;;;;;;5.13;4.63;;;12.70;99.90;;;;;;5068118;28;20490;-49
2022/07/12 02:11:44;;;;;;;4.77;4.47;;;12.70;99.90;;;;;;5064991;28;20185;-49
2022/07/12 02:14:14;;;;;;;4.67;4.37;;;12.70;99.90;;;;;;5066933;28;20198;-46
2022/07/12 02:16:41;;;;;;;4.90;4.60;;;12.60;99.90;;;;;;5065286;28;20501;-50
2022/07/12 02:19:07;;;;;;;4.33;4.00;;;12.70;99.90;;;;;;5035842;28;20787;-47
2022/07/12 02:21:33;;;;;;;4.33;4.00;;;12.70;99.90;;;;;;5068087;28;20431;-52
2022/07/12 02:23:59;;;;;;;5.00;4.60;;;12.80;99.90;;;;;;5065375;28;20741;-48
2022/07/12 02:26:25;;;;;;;4.63;4.33;;;12.80;99.90;;;;;;5068440;28;20430;-47
2022/07/12 02:28:51;;;;;;;4.90;4.50;;;12.80;99.90;;;;;;5065641;28;20463;-51
2022/07/12 02:31:16;;;;;;;4.90;4.50;;;12.80;99.90;;;;;;5064792;28;20565;-47
2022/07/12 02:33:42;;;;;;;4.90;4.60;;;12.70;99.90;;;;;;5062410;28;20189;-53
2022/07/12 02:36:08;;;;;;;4.93;4.40;;;12.70;99.90;;;;;;5049179;28;20213;-52
2022/07/12 02:38:33;;;;;;;4.33;4.03;;;12.80;99.90;;;;;;5070209;28;20447;-48
2022/07/12 02:40:59;;;;;;;5.17;4.67;;;12.80;99.90;;;;;;5060510;28;20552;-49
2022/07/12 02:43:30;;;;;;;4.80;4.50;;;12.80;99.90;;;;;;5068575;28;20221;-51
2022/07/12 02:46:06;;;;;;;5.17;4.77;;;12.70;99.90;;;;;;5050483;28;20354;-47
2022/07/12 02:48:31;;;;;;;4.80;4.50;;;12.60;99.90;;;;;;5064788;28;21078;-52
2022/07/12 02:50:58;;;;;;;5.07;4.67;;;12.60;99.90;;;;;;5072897;28;20477;-48
2022/07/12 02:53:24;;;;;;;5.33;4.83;;;12.50;99.90;;;;;;5067754;28;20784;-51
2022/07/12 02:55:49;;;;;;;4.57;4.27;;;12.50;99.90;;;;;;5065344;28;20507;-48
2022/07/12 02:58:15;;;;;;;4.80;4.40;;;12.50;99.90;;;;;;5070945;28;20185;-49
2022/07/12 03:00:41;;;;;;;5.87;4.60;;;12.50;99.90;;;;;;5066217;28;20243;-49
2022/07/12 03:03:07;;;;;;;4.90;4.30;;;12.40;99.90;;;;;;5057241;28;20784;-47
2022/07/12 03:05:34;;;;;;;4.40;4.10;;;12.30;99.90;;;;;;5070707;28;20484;-50
2022/07/12 03:08:00;;;;;;;4.33;4.03;;;12.30;99.90;;;;;;5064000;28;20466;-48
2022/07/12 03:10:26;;;;;;;5.00;4.67;;;12.20;99.90;;;;;;5067967;28;20786;-51
2022/07/12 03:12:52;;;;;;;4.97;4.57;;;12.20;99.90;;;;;;5057903;28;20432;-48
2022/07/12 03:15:17;;;;;;;4.50;4.20;;;12.20;99.90;;;;;;5066641;28;20178;-48
2022/07/12 03:17:43;;;;;;;4.87;4.47;;;12.20;99.90;;;;;;5059802;28;20519;-50
2022/07/12 03:20:11;;;;;;;4.57;4.17;;;12.20;99.90;;;;;;5065043;28;20191;-50
2022/07/12 03:22:37;;;;;;;4.60;4.30;;;12.20;99.90;;;;;;5062463;28;20174;-48
2022/07/12 03:25:04;;;;;;;4.33;3.93;;;12.10;99.90;;;;;;5052250;28;20782;-51
2022/07/12 03:27:31;;;;;;;4.47;4.17;;;12.10;99.90;;;;;;5064427;28;20466;-48
2022/07/12 03:29:57;;;;;;;4.60;4.20;;;12.10;99.90;;;;;;5062215;28;21279;-49
2022/07/12 03:32:23;;;;;;;4.43;4.03;;;12.10;99.90;;;;;;5060368;28;20441;-49
2022/07/12 03:34:48;;;;;;;4.33;4.03;;;12.10;99.90;;;;;;5067750;28;20420;-48
2022/07/12 03:37:14;;;;;;;4.67;4.30;;;12.10;99.90;;;;;;5070376;28;20962;-50
2022/07/12 03:39:39;;;;;;;5.33;4.93;;;12.10;99.90;;;;;;5062820;28;20178;-49
2022/07/12 03:42:05;;;;;;;4.60;4.20;;;12.10;99.90;;;;;;5051126;28;20228;-48
2022/07/12 03:44:31;;;;;;;4.50;4.20;;;12.10;99.90;;;;;;5065683;28;20185;-52
2022/07/12 03:46:58;;;;;;;4.50;4.17;;;12.10;99.90;;;;;;5068454;28;20565;-52
2022/07/12 03:49:23;;;;;;;7.10;4.30;;;12.10;99.90;;;;;;5066307;28;21032;-51
2022/07/12 03:51:49;;;;;;;4.83;4.37;;;12.10;99.90;;;;;;5078287;28;20530;-50
2022/07/12 03:54:14;;;;;;;4.40;4.03;;;12.10;99.90;;;;;;5066631;28;20174;-51
2022/07/12 03:59:24;;;;;;;4.60;4.30;;;12.10;99.90;;;;;;5067026;28;20270;-51
2022/07/12 04:01:50;;;;;;;4.20;3.90;;;12.10;99.90;;;;;;5070918;28;20427;-51
2022/07/12 04:04:16;;;;;;;4.53;4.20;;;12.10;99.90;;;;;;5064912;28;20186;-54
2022/07/12 04:06:41;;;;;;;4.97;4.57;;;12.10;99.90;;;;;;5066499;28;20235;-47
2022/07/12 04:09:07;;;;;;;4.80;4.30;;;12.10;99.90;;;;;;5047658;28;20664;-49
2022/07/12 04:11:33;;;;;;;4.83;4.43;;;12.10;99.90;;;;;;5069785;28;20186;-51
2022/07/12 04:13:59;;;;;;;4.27;3.97;;;12.20;99.90;;;;;;5065800;28;20178;-50
2022/07/12 04:16:26;;;;;;;5.07;4.53;;;12.20;99.90;;;;;;5067044;28;20905;-47
2022/07/12 04:18:51;;;;;;;4.83;4.43;;;12.20;99.90;;;;;;5060700;28;20213;-48
2022/07/12 04:21:17;;;;;;;4.17;3.87;;;12.30;99.90;;;;;;5058833;28;20501;-49
2022/07/12 04:23:42;;;;;;;6.23;4.13;;;12.30;99.90;;;;;;5068453;28;21000;-49
2022/07/12 04:26:08;;;;;;;4.90;3.80;;;12.30;99.90;;;;;;5070107;28;20216;-51
2022/07/12 04:28:35;;;;;;;4.23;3.90;;;12.40;99.90;;;;;;5067172;28;20213;-51
2022/07/12 04:31:00;;;;;;;4.40;4.10;;;12.40;99.90;;;;;;5064891;28;20266;-50
2022/07/12 04:33:26;;;;;;;4.80;4.50;;;12.50;99.90;;;;;;5062611;28;20433;-48
2022/07/12 04:35:52;;;;;;;4.90;4.50;;;12.50;99.90;;;;;;5060941;28;20193;-49
2022/07/12 04:38:17;;;;;;;4.67;4.27;;;12.60;99.90;;;;;;5068966;28;20201;-48
2022/07/12 04:40:43;;;;;;;5.20;4.80;;;12.70;99.90;;;;;;5060256;28;20578;-47
2022/07/12 04:43:08;;;;;;;4.83;4.43;;;12.70;99.90;;;;;;5068063;28;20717;-50
2022/07/12 04:45:34;;;;;;;5.07;4.50;;;12.80;99.90;;;;;;5068716;28;20659;-47
2022/07/12 04:48:00;;;;;;;4.80;4.30;;;12.90;99.90;;;;;;5069664;28;20283;-49
2022/07/12 04:50:25;;;;;;;5.20;4.10;;;13.00;99.90;;;;;;5065921;28;20455;-50
2022/07/12 04:52:51;;;;;;;6.00;4.80;;;13.10;99.90;;;;;;5064527;28;20891;-47
2022/07/12 04:55:17;;;;;;;5.40;4.90;;;13.30;99.90;;;;;;5057907;28;20196;-52
2022/07/12 04:57:42;;;;;;;6.43;4.90;;;13.30;99.90;;;;;;5067996;28;20217;-52
2022/07/12 05:00:08;;;;;;;4.80;4.50;;;13.40;99.90;;;;;;5049593;28;20688;-51
2022/07/12 05:02:34;;;;;;;5.00;4.50;;;13.40;99.90;;;;;;5069180;28;20201;-50
2022/07/12 05:05:00;;;;;;;5.20;4.80;;;13.50;99.90;;;;;;5058248;28;20447;-49
2022/07/12 05:07:25;;;;;;;5.60;4.60;;;13.50;99.90;;;;;;5052949;28;20220;-50
2022/07/12 05:09:51;;;;;;;5.63;5.13;;;13.60;99.90;;;;;;5067621;28;20442;-48
2022/07/12 05:12:17;;;;;;;5.23;4.73;;;13.70;99.90;;;;;;5059427;28;20186;-53
2022/07/12 05:14:43;;;;;;;5.60;5.10;;;13.70;99.90;;;;;;5069336;28;20264;-48
2022/07/12 05:17:09;;;;;;;8.93;4.63;;;13.80;99.90;;;;;;5060828;28;21128;-52
2022/07/12 05:19:36;;;;;;;5.33;4.83;;;13.80;99.90;;;;;;5066311;28;20181;-52
2022/07/12 05:22:02;;;;;;;5.60;5.10;;;13.90;99.90;;;;;;5068465;28;20390;-47
2022/07/12 05:24:28;;;;;;;5.87;5.37;;;14.00;99.90;;;;;;5066641;28;20525;-49
2022/07/12 05:26:54;;;;;;;5.93;5.33;;;14.00;99.90;;;;;;5066702;28;20230;-47
2022/07/12 05:29:19;;;;;;;6.17;5.53;;;14.20;99.90;;;;;;5071482;28;20859;-50
2022/07/12 05:31:45;;;;;;;6.07;5.57;;;14.30;99.90;;;;;;5060402;28;20427;-50
2022/07/12 05:34:10;;;;;;;6.07;5.50;;;14.40;99.90;;;;;;5064912;28;20193;-53
2022/07/12 05:36:36;;;;;;;6.80;6.20;;;14.50;99.90;;;;;;5059277;28;20189;-49
2022/07/12 05:39:01;;;;;;;6.50;5.90;;;14.60;99.90;;;;;;5061331;28;20189;-53
2022/07/12 05:41:27;;;;;;;6.10;5.40;;;14.70;99.90;;;;;;5062362;28;20188;-51
2022/07/12 05:43:53;;;;;;;6.83;5.43;;;14.80;99.90;;;;;;5066206;28;20723;-51
2022/07/12 05:46:18;;;;;;;6.10;5.57;;;14.90;99.90;;;;;;5067213;28;20178;-49
2022/07/12 05:48:44;;;;;;;6.47;5.87;;;15.00;99.90;;;;;;5063711;28;20903;-52
2022/07/12 05:53:54;;;;;;;7.40;6.30;;;15.20;99.90;;;;;;5067647;28;20427;-56
2022/07/12 05:56:20;;;;;;;6.40;5.90;;;15.30;99.90;;;;;;5067858;28;20930;-53
2022/07/12 05:58:46;;;;;;;6.40;5.80;;;15.40;99.90;;;;;;5064648;28;20189;-49
2022/07/12 06:01:11;;;;;;;5.70;5.20;;;15.50;99.90;;;;;;5064114;28;20595;-55
2022/07/12 06:03:37;;;;;;;6.10;5.57;;;15.60;99.90;;;;;;5081549;28;20528;-54
2022/07/12 06:06:03;;;;;;;6.70;6.10;;;15.80;99.90;;;;;;5062684;28;20941;-53
2022/07/12 06:08:29;;;;;;;6.73;6.13;;;16.00;99.90;;;;;;5071360;28;20507;-47
2022/07/12 06:10:54;;;;;;;7.27;6.67;;;16.30;99.90;;;;;;5048170;28;20212;-48
2022/07/12 06:13:20;;;;;;;6.67;6.17;;;16.40;99.90;;;;;;5070987;28;20257;-50
2022/07/12 06:15:45;;;;;;;6.57;5.97;;;16.40;99.90;;;;;;5066439;28;20190;-48
2022/07/12 06:18:11;;;;;;;7.40;6.70;;;16.50;99.90;;;;;;5071372;28;20203;-52
2022/07/12 06:20:36;;;;;;;7.80;7.20;;;16.70;99.90;;;;;;5068798;28;20357;-49
2022/07/12 06:23:02;;;;;;;8.50;7.27;;;16.90;99.90;;;;;;5067166;28;20188;-47
2022/07/12 06:25:28;;;;;;;9.00;6.97;;;17.20;99.90;;;;;;5070007;28;20192;-52
2022/07/12 06:27:53;;;;;;;8.67;7.87;;;17.30;99.90;;;;;;5068317;28;20744;-46
2022/07/12 06:30:20;;;;;;;8.50;7.70;;;17.40;99.90;;;;;;5067920;28;20191;-52
2022/07/12 06:32:47;;;;;;;7.60;7.00;;;17.50;99.90;;;;;;5065658;28;20197;-51
2022/07/12 06:35:14;;;;;;;8.53;7.83;;;17.80;99.90;;;;;;5056305;28;20497;-48
2022/07/12 06:37:40;;;;;;;8.40;7.67;;;18.00;99.90;;;;;;5065035;28;20444;-48
2022/07/12 06:40:06;;;;;;;7.90;7.30;;;18.00;99.90;;;;;;5059956;28;20868;-50
2022/07/12 06:42:33;;;;;;;7.87;7.17;;;18.10;99.90;;;;;;5055955;28;20925;-49
2022/07/12 06:44:58;;;;;;;8.67;7.97;;;18.20;99.90;;;;;;5059853;28;20431;-48
2022/07/12 06:47:24;;;;;;;7.87;7.27;;;18.30;99.90;;;;;;5063069;28;20936;-51
2022/07/12 06:49:49;;;;;;;8.30;7.60;;;18.40;99.90;;;;;;5061511;28;20203;-53
2022/07/12 06:52:15;;;;;;;8.40;7.70;;;18.50;99.90;;;;;;5070170;28;20185;-50
2022/07/12 06:54:41;;;;;;;8.37;7.47;;;18.60;99.90;;;;;;5069722;28;20196;-52
2022/07/12 06:57:06;;;;;;;8.40;7.70;;;18.60;99.90;;;;;;5065506;28;20182;-49
2022/07/12 06:59:32;;;;;;;8.20;7.60;;;18.60;99.90;;;;;;5059668;28;20177;-49
2022/07/12 07:01:58;;;;;;;8.50;7.73;;;18.70;99.90;;;;;;5055930;28;20192;-47
2022/07/12 07:04:24;;;;;;;8.43;7.70;;;18.70;99.90;;;;;;5058653;28;20210;-50
2022/07/12 07:06:50;;;;;;;8.17;7.57;;;18.70;99.90;;;;;;5057973;28;20827;-50
2022/07/12 07:09:17;;;;;;;8.27;7.43;;;18.90;99.90;;;;;;5065719;28;20205;-50
2022/07/12 07:11:42;;;;;;;7.83;7.13;;;18.90;99.90;;;;;;5062760;28;20453;-48
2022/07/12 07:14:08;;;;;;;8.53;7.83;;;18.90;99.90;;;;;;5068769;28;20843;-49
2022/07/12 07:16:34;;;;;;;8.97;8.10;;;18.90;99.90;;;;;;5065853;28;20640;-50
2022/07/12 07:18:59;;;;;;;7.50;6.90;;;19.00;99.90;;;;;;5060873;28;20277;-50
2022/07/12 07:21:25;;;;;;;8.70;8.00;;;19.10;99.90;;;;;;5073345;28;20209;-50
2022/07/12 07:23:52;;;;;;;8.33;7.63;;;19.10;99.90;;;;;;5062944;28;20202;-49
2022/07/12 07:26:18;;;;;;;8.63;7.83;;;19.10;99.90;;;;;;5067653;28;20193;-46
2022/07/12 07:31:28;;;;;;;7.77;7.13;;;19.30;99.90;;;;;;5069246;28;20423;-49
2022/07/12 07:33:54;;;;;;;8.60;8.00;;;19.50;99.90;;;;;;5069064;28;20427;-47
2022/07/12 07:36:19;;;;;;;8.83;7.80;;;19.50;99.90;;;;;;5070564;28;20205;-49
2022/07/12 07:38:45;;;;;;;7.33;6.73;;;19.60;99.90;;;;;;5083139;28;20534;-48
2022/07/12 07:41:11;;;;;;;8.53;7.93;;;19.80;99.90;;;;;;5070782;28;20714;-47
2022/07/12 07:43:36;;;;;;;8.00;7.30;;;19.80;99.90;;;;;;5069718;28;20542;-48
2022/07/12 07:46:02;;;;;;;7.27;6.77;;;19.90;99.90;;;;;;5052406;28;20424;-50
2022/07/12 07:48:28;;;;;;;7.07;6.53;;;20.00;99.90;;;;;;5080741;28;20230;-49
2022/07/12 07:50:54;;;;;;;6.80;6.27;;;20.10;99.90;;;;;;5068498;28;20178;-49
2022/07/12 07:53:20;;;;;;;7.70;6.47;;;20.10;99.90;;;;;;5075834;28;20763;-50
2022/07/12 07:55:46;;;;;;;7.00;6.40;;;20.10;99.90;;;;;;5068566;28;20416;-51
2022/07/12 07:58:14;;;;;;;6.90;6.40;;;20.20;99.90;;;;;;5069624;28;20182;-48
2022/07/12 08:00:39;;;;;;;6.43;5.93;;;20.40;99.90;;;;;;5068079;28;20235;-48
2022/07/12 08:03:05;;;;;;;6.97;6.47;;;20.50;99.90;;;;;;5069752;28;20506;-51
2022/07/12 08:05:31;;;;;;;7.13;6.63;;;20.60;99.60;;;;;;5055084;28;20186;-46
2022/07/12 08:07:56;;;;;;;6.73;6.23;;;20.70;99.20;;;;;;5062645;28;20288;-49
2022/07/12 08:10:22;;;;;;;6.73;6.20;;;20.80;98.80;;;;;;5070517;28;20563;-48
2022/07/12 08:12:48;;;;;;;5.90;5.50;;;20.80;99.10;;;;;;5069791;28;20501;-48
2022/07/12 08:15:13;;;;;;;6.27;5.67;;;20.80;97.80;;;;;;5070600;28;20187;-46
2022/07/12 08:17:39;;;;;;;6.23;5.83;;;20.90;97.60;;;;;;5070256;28;20193;-46
2022/07/12 08:20:05;;;;;;;7.00;6.30;;;21.00;96.80;;;;;;5068909;28;20205;-50
2022/07/12 08:22:31;;;;;;;6.80;6.40;;;21.10;96.30;;;;;;5067766;28;20187;-51
2022/07/12 08:24:57;;;;;;;6.10;5.70;;;21.20;95.90;;;;;;5068450;28;20574;-49
2022/07/12 08:27:23;;;;;;;6.50;6.10;;;21.30;94.40;;;;;;5054704;28;20545;-50
2022/07/12 08:29:49;;;;;;;5.77;5.37;;;21.40;93.40;;;;;;5060142;28;20194;-49
2022/07/12 08:32:15;;;;;;;6.13;5.73;;;21.40;93.20;;;;;;5054916;28;20533;-48
2022/07/12 08:34:41;;;;;;;6.43;5.97;;;21.50;92.80;;;;;;5044846;28;20457;-51
2022/07/12 08:37:07;;;;;;;5.83;5.43;;;21.50;92.10;;;;;;5042905;28;20452;-51
2022/07/12 08:39:32;;;;;;;6.87;6.20;;;21.60;91.30;;;;;;5042173;28;20274;-49
2022/07/12 08:41:58;;;;;;;5.67;5.30;;;21.80;91.10;;;;;;5044510;28;20195;-49
2022/07/12 08:44:23;;;;;;;5.80;5.40;;;21.90;90.00;;;;;;5044474;28;20228;-48
2022/07/12 08:46:49;;;;;;;5.77;5.27;;;22.10;87.20;;;;;;5050258;28;20218;-51
2022/07/12 08:49:15;;;;;;;7.10;5.30;;;22.20;84.00;;;;;;5059080;28;20216;-51
2022/07/12 08:51:41;;;;;;;5.57;5.17;;;22.30;81.00;;;;;;5068724;28;20928;-48
2022/07/12 08:54:09;;;;;;;4.77;4.50;;;22.30;78.60;;;;;;5064652;28;20213;-48
2022/07/12 08:56:42;;;;;;;5.10;4.80;;;22.50;78.00;;;;;;5064661;28;20427;-52
2022/07/12 08:59:11;;;;;;;4.70;4.40;;;22.70;73.60;;;;;;5068622;28;20560;-50
2022/07/12 09:01:43;;;;;;;5.27;4.83;;;22.90;72.90;;;;;;5050287;28;20540;-49
2022/07/12 09:04:10;;;;;;;5.40;5.10;;;23.00;73.60;;;;;;5067212;28;20442;-48
2022/07/12 09:06:36;;;;;;;5.73;4.97;;;23.20;68.50;;;;;;5070452;28;20424;-50
2022/07/12 09:09:02;;;;;;;5.47;5.07;;;23.10;63.60;;;;;;5068771;28;20466;-48
2022/07/12 09:11:27;;;;;;;4.87;4.63;;;23.00;64.40;;;;;;5068863;28;20181;-47
2022/07/12 09:13:54;;;;;;;4.90;4.60;;;23.00;63.90;;;;;;5069183;28;20208;-49
2022/07/12 09:16:25;;;;;;;5.50;5.10;;;23.20;63.80;;;;;;5068694;28;20197;-52
2022/07/12 09:18:51;;;;;;;4.97;4.57;;;23.40;61.20;;;;;;5068861;28;20441;-48
2022/07/12 09:21:29;;;;;;;4.60;4.30;;;23.40;58.50;;;;;;5077110;28;20420;-50
2022/07/12 09:23:58;;;;;;;3.97;3.77;;;23.30;59.30;;;;;;5073197;28;20913;-49
2022/07/12 09:26:30;;;;;;;5.27;4.97;;;23.20;59.40;;;;;;5078014;28;20457;-48
2022/07/12 09:29:05;;;;;;;5.33;4.93;;;23.10;61.10;;;;;;5066928;28;20462;-50
2022/07/12 09:37:15;;;;;;;4.53;4.23;;;23.50;56.50;;;;;;5063353;28;20497;-47
2022/07/12 09:39:42;;;;;;;4.60;4.30;;;23.40;56.80;;;;;;5062168;28;20897;-47
2022/07/12 09:42:10;;;;;;;4.60;4.40;;;23.30;58.00;;;;;;5065622;28;20474;-50
2022/07/12 09:44:36;;;;;;;5.13;4.83;;;23.40;57.20;;;;;;5066044;28;20416;-48
2022/07/12 09:47:02;;;;;;;4.10;3.90;;;23.60;57.70;;;;;;5062698;28;20424;-47
2022/07/12 09:49:28;;;;;;;3.63;3.43;;;23.80;53.40;;;;;;5063952;28;20456;-49
2022/07/12 09:51:56;;;;;;;3.90;3.70;;;23.90;53.30;;;;;;5065464;28;20181;-51
2022/07/12 09:54:27;;;;;;;4.20;3.97;;;23.80;52.30;;;;;;5071682;28;20412;-48
2022/07/12 09:56:58;;;;;;;3.63;3.43;;;24.00;53.30;;;;;;5066392;28;20443;-51
2022/07/12 09:59:28;;;;;;;3.73;3.63;;;24.30;49.60;;;;;;5065357;28;20431;-54
2022/07/12 10:01:59;;;;;;;4.43;4.10;;;24.50;49.20;;;;;;5045449;28;21633;-52
2022/07/12 10:04:29;;;;;;;4.43;4.23;;;24.50;49.30;;;;;;5047863;28;21475;-48
2022/07/12 10:06:54;;;;;;;3.53;3.27;;;24.40;48.50;;;;;;5047786;28;20548;-52
2022/07/12 10:09:21;;;;;;;4.30;4.00;;;24.30;48.80;;;;;;5051954;28;20590;-52
2022/07/12 10:11:48;;;;;;;4.30;4.10;;;24.30;49.30;;;;;;5062468;28;20450;-52
2022/07/12 10:14:14;;;;;;;3.80;3.50;;;24.40;49.50;;;;;;5065383;28;20950;-48
2022/07/12 10:16:45;;;;;;;4.60;4.30;;;24.60;49.10;;;;;;5067404;28;20481;-53
2022/07/12 10:19:35;;;;;;;4.30;4.00;;;24.70;47.80;;;;;;5066585;28;20523;-48
2022/07/12 10:22:03;;;;;;;4.30;4.00;;;24.90;47.70;;;;;;5067263;28;20420;-51
2022/07/12 10:24:51;;;;;;;3.80;3.70;;;25.10;45.80;;;;;;5066722;28;20471;-49
2022/07/12 10:27:17;;;;;;;5.10;3.50;;;25.40;44.80;;;;;;5055802;28;20414;-53
2022/07/12 10:29:44;;;;;;;3.97;3.60;;;25.60;44.50;;;;;;5067665;28;20425;-48
2022/07/12 10:32:35;;;;;;;3.70;3.40;;;25.70;43.60;;;;;;5063885;28;20208;-48
2022/07/12 10:35:05;;;;;;;3.13;2.97;;;25.70;43.20;;;;;;5077262;28;20453;-51
2022/07/12 10:37:31;;;;;;;3.20;3.00;;;25.50;41.40;;;;;;5071807;28;20472;-49
2022/07/12 10:40:16;;;;;;;3.20;3.10;;;25.40;41.90;;;;;;5067872;28;20412;-47
2022/07/12 10:43:00;;;;;;;3.30;3.20;;;25.30;40.50;;;;;;5064707;28;20513;-52
2022/07/12 10:45:38;;;;;;;3.50;3.30;;;25.00;39.80;;;;;;5067628;28;20421;-49
2022/07/12 10:48:05;;;;;;;2.90;2.70;;;24.90;40.50;;;;;;5067138;28;21170;-51
2022/07/12 10:50:48;;;;;;;3.03;2.93;;;24.90;40.90;;;;;;5066774;28;20896;-54
2022/07/12 10:53:29;;;;;;;2.90;2.80;;;25.20;39.40;;;;;;5066251;28;20438;-47
2022/07/12 10:56:06;;;;;;;4.13;3.40;;;25.50;37.70;;;;;;5071258;28;20857;-50
2022/07/12 10:58:36;;;;;;;3.53;3.33;;;25.70;37.50;;;;;;5071425;28;20783;-49
2022/07/12 11:01:08;;;;;;;3.50;3.30;;;26.10;37.20;;;;;;5072438;28;20485;-53
2022/07/12 11:03:45;;;;;;;3.57;3.47;;;26.50;36.00;;;;;;5065889;28;20439;-51
2022/07/12 11:06:16;;;;;;;4.33;3.93;;;26.60;35.70;;;;;;5067629;28;20526;-50
2022/07/12 11:09:04;;;;;;;3.50;3.30;;;26.50;36.20;;;;;;5070399;28;20486;-48
2022/07/12 11:11:31;;;;;;;3.27;3.17;;;26.40;35.70;;;;;;5066971;28;20531;-50
2022/07/12 11:13:59;;;;;;;3.47;3.37;;;26.00;33.40;;;;;;5069876;28;20796;-47
2022/07/12 11:16:25;;;;;;;4.63;3.30;;;26.00;35.40;;;;;;5070439;28;20428;-50
2022/07/12 11:18:52;;;;;;;3.20;3.00;;;26.30;34.70;;;;;;5070111;28;21091;-48
2022/07/12 11:21:19;;;;;;;3.03;2.93;;;26.80;35.00;;;;;;5069819;28;20594;-49
2022/07/12 11:23:45;;;;;;;3.40;3.20;;;27.10;33.60;;;;;;5064248;28;20436;-52
2022/07/12 11:26:12;;;;;;;3.47;3.27;;;27.60;31.80;;;;;;5069280;28;20998;-48
2022/07/12 11:28:38;;;;;;;3.53;3.40;;;27.50;30.50;;;;;;5068607;28;20656;-48
2022/07/12 11:31:12;;;;;;;3.20;3.10;;;27.50;32.70;;;;;;5068147;28;20970;-48
2022/07/12 11:33:42;;;;;;;2.80;2.70;;;27.90;32.40;;;;;;5066747;28;20424;-52
2022/07/12 11:36:10;;;;;;;3.83;3.63;;;28.40;30.20;;;;;;5068457;28;20750;-50
2022/07/12 11:38:37;;;;;;;5.37;3.10;;;28.50;29.70;;;;;;5069111;28;20416;-50
2022/07/12 11:41:04;;;;;;;3.30;3.20;;;28.60;30.00;;;;;;5069208;28;20416;-50
2022/07/12 11:43:32;;;;;;;3.37;3.20;;;29.00;29.00;;;;;;5069214;28;20461;-48
2022/07/12 11:45:58;;;;;;;3.60;3.37;;;29.20;28.00;;;;;;5066885;28;20596;-52
2022/07/12 11:48:24;;;;;;;4.90;3.50;;;28.80;27.60;;;;;;5069456;28;20529;-49
2022/07/12 11:50:51;;;;;;;2.87;2.70;;;28.60;28.50;;;;;;5070367;28;20415;-48
2022/07/12 11:53:25;;;;;;;3.07;2.97;;;29.00;29.20;;;;;;5069550;28;20436;-51
2022/07/12 11:55:53;;;;;;;3.00;2.90;;;29.60;26.70;;;;;;5069464;28;20475;-49
2022/07/12 11:58:20;;;;;;;3.73;3.60;;;29.90;26.80;;;;;;5068537;28;20439;-50
2022/07/12 12:00:47;;;;;;;3.33;3.23;;;30.20;26.70;;;;;;5074863;28;20823;-52
2022/07/12 12:03:14;;;;;;;3.30;3.00;;;30.30;26.00;;;;;;5070418;28;20847;-49
2022/07/12 12:05:40;;;;;;;3.50;3.20;;;30.30;25.70;;;;;;5066986;28;20486;-52
2022/07/12 12:08:07;;;;;;;3.30;3.20;;;30.10;24.80;;;;;;5069527;28;20467;-49
2022/07/12 12:10:33;;;;;;;3.77;3.57;;;29.80;25.40;;;;;;5069475;28;20917;-53
2022/07/12 12:13:00;;;;;;;3.20;3.10;;;29.70;26.60;;;;;;5068095;28;20466;-51
2022/07/12 12:15:26;;;;;;;3.30;3.10;;;29.90;26.00;;;;;;5071894;28;20423;-53
2022/07/12 12:17:59;;;;;;;3.20;3.10;;;29.90;25.40;;;;;;5072720;28;20453;-49
2022/07/12 12:20:36;;;;;;;3.40;3.27;;;29.70;25.50;;;;;;5068368;28;20707;-50
2022/07/12 12:23:03;;;;;;;3.40;3.20;;;29.90;25.80;;;;;;5069659;28;21230;-52
2022/07/12 12:25:30;;;;;;;3.10;3.00;;;30.20;24.60;;;;;;5067129;28;20423;-53
2022/07/12 12:27:57;;;;;;;3.53;3.30;;;30.20;24.60;;;;;;5049546;28;20502;-49
2022/07/12 12:30:24;;;;;;;3.20;3.10;;;30.10;24.20;;;;;;5054905;28;20416;-49
2022/07/12 12:32:52;;;;;;;3.47;3.23;;;29.50;25.20;;;;;;5069118;28;20814;-51
2022/07/12 12:35:32;;;;;;;3.23;3.13;;;29.20;26.00;;;;;;5068428;28;20438;-47
2022/07/12 12:38:00;;;;;;;3.00;2.87;;;29.10;25.90;;;;;;5060138;28;20517;-50
2022/07/12 12:40:27;;;;;;;3.00;2.80;;;29.60;25.90;;;;;;5050775;28;20508;-53
2022/07/12 12:43:05;;;;;;;3.37;3.20;;;30.30;25.00;;;;;;5065273;28;20432;-50
2022/07/12 12:45:31;;;;;;;3.40;3.30;;;31.00;24.40;;;;;;5063825;28;20459;-53
2022/07/12 12:48:01;;;;;;;3.60;3.40;;;31.70;23.40;;;;;;5080557;28;20538;-54
2022/07/12 12:50:44;;;;;;;3.90;2.93;;;32.10;22.20;;;;;;5074854;28;20644;-51
2022/07/12 12:53:16;;;;;;;3.17;3.00;;;32.00;22.10;;;;;;5055714;28;20473;-52
2022/07/12 12:55:44;;;;;;;3.50;3.30;;;31.20;22.20;;;;;;5072259;28;20427;-49
2022/07/12 12:58:10;;;;;;;3.20;3.00;;;31.00;23.50;;;;;;5068621;28;20407;-55
2022/07/12 13:00:38;;;;;;;3.20;2.90;;;30.50;23.30;;;;;;5062366;28;21011;-52
2022/07/12 13:03:06;;;;;;;3.43;3.33;;;30.40;23.60;;;;;;5068384;28;20416;-50